Time;durP1;ratioP1;P1;durP2;ratioP2;P2;SDS_P1;SDS_P2;PMS_P1;PMS_P2;Temp;Humidity;BMP_temperature;BMP_pressure;BME280_temperature;BME280_humidity;BME280_pressure;Samples;Min_cycle;Max_cycle;Signal;HPM_P1;HPM_P2
2021/04/09 00:00:07;;;;;;;19.77;15.00;;;;;;;17.96;42.14;99988.00;2066360;28;20516;-64
2021/04/09 00:01:08;;;;;;;19.90;15.23;;;;;;;17.95;42.25;99986.28;2068772;28;20111;-64
2021/04/09 00:02:10;;;;;;;18.30;14.73;;;;;;;17.95;42.11;99981.66;2068988;28;20037;-64
2021/04/09 00:03:11;;;;;;;18.83;14.27;;;;;;;17.95;42.13;99980.81;2069446;28;20065;-64
2021/04/09 00:04:14;;;;;;;16.98;14.13;;;;;;;17.95;42.33;99978.09;2070590;28;20441;-64
2021/04/09 00:05:19;;;;;;;18.63;14.95;;;;;;;17.94;42.23;99985.41;2069418;28;20481;-64
2021/04/09 00:06:19;;;;;;;18.20;14.40;;;;;;;17.95;42.14;99984.41;2062974;28;20511;-64
2021/04/09 00:07:20;;;;;;;17.30;13.80;;;;;;;17.94;42.21;99982.69;2070286;28;20025;-64
2021/04/09 00:08:20;;;;;;;17.53;14.40;;;;;;;17.94;42.37;99979.97;2069707;28;20076;-64
2021/04/09 00:09:21;;;;;;;19.13;14.90;;;;;;;17.98;42.35;99978.66;2070497;28;20481;-64
2021/04/09 00:10:24;;;;;;;19.23;14.03;;;;;;;17.99;42.24;99977.66;2065780;28;20022;-64
2021/04/09 00:11:24;;;;;;;16.00;13.48;;;;;;;17.99;42.24;99977.66;2061545;28;20508;-65
2021/04/09 00:12:25;;;;;;;18.10;13.97;;;;;;;18.02;42.14;99975.66;2068980;28;20604;-64
2021/04/09 00:13:26;;;;;;;16.97;14.10;;;;;;;18.02;42.18;99973.78;2069532;28;20060;-64
2021/04/09 00:14:26;;;;;;;16.23;13.10;;;;;;;18.03;42.02;99977.34;2070663;28;20108;-64
2021/04/09 00:15:27;;;;;;;17.53;14.10;;;;;;;18.03;41.99;99977.34;2069622;28;20065;-64
2021/04/09 00:16:27;;;;;;;16.27;13.83;;;;;;;18.02;42.30;99973.78;2069554;28;20045;-64
2021/04/09 00:17:28;;;;;;;18.60;15.13;;;;;;;18.00;42.17;99971.19;2063345;28;20049;-64
2021/04/09 00:18:28;;;;;;;16.40;13.53;;;;;;;18.02;42.16;99978.38;2063469;28;20038;-64
2021/04/09 00:19:28;;;;;;;17.90;14.90;;;;;;;18.04;42.21;99979.94;2062445;28;20030;-64
2021/04/09 00:20:29;;;;;;;19.40;14.90;;;;;;;18.04;42.13;99973.63;2066573;28;20377;-64
2021/04/09 00:21:29;;;;;;;19.40;15.30;;;;;;;18.02;42.32;99970.19;2070420;28;20030;-64
2021/04/09 00:22:30;;;;;;;17.37;14.37;;;;;;;18.02;42.16;99967.47;2064410;28;20084;-64
2021/04/09 00:23:30;;;;;;;18.47;14.83;;;;;;;18.02;42.10;99964.75;2064968;28;20124;-64
2021/04/09 00:24:31;;;;;;;16.70;13.90;;;;;;;18.02;42.19;99956.56;2062412;28;20524;-64
2021/04/09 00:25:32;;;;;;;17.20;14.30;;;;;;;18.02;42.17;99959.28;2066300;28;20038;-64
2021/04/09 00:26:32;;;;;;;17.13;14.17;;;;;;;17.99;42.17;99963.16;2070580;28;20037;-64
2021/04/09 00:27:33;;;;;;;18.43;14.27;;;;;;;17.99;42.18;99955.84;2069112;28;20053;-64
2021/04/09 00:28:33;;;;;;;17.67;14.33;;;;;;;17.98;42.27;99954.13;2069868;28;20038;-65
2021/04/09 00:29:34;;;;;;;18.27;13.67;;;;;;;17.99;42.08;99950.38;2070567;28;20128;-64
2021/04/09 00:30:34;;;;;;;17.30;13.47;;;;;;;17.97;42.28;99959.72;2066481;28;20901;-65
2021/04/09 00:31:36;;;;;;;18.77;14.70;;;;;;;17.97;42.39;99957.84;2069755;28;20509;-65
2021/04/09 00:32:36;;;;;;;17.33;14.32;;;;;;;17.97;42.23;99949.66;2069662;28;20030;-64
2021/04/09 00:33:37;;;;;;;17.70;14.60;;;;;;;17.98;42.21;99948.66;2070192;28;20044;-64
2021/04/09 00:34:37;;;;;;;16.80;14.13;;;;;;;17.96;42.19;99950.69;2070182;28;20437;-65
2021/04/09 00:35:38;;;;;;;18.17;14.57;;;;;;;17.96;42.10;99950.69;2068445;28;20400;-64
2021/04/09 00:36:39;;;;;;;17.90;14.67;;;;;;;17.97;42.14;99941.47;2077106;28;20028;-65
2021/04/09 00:37:39;;;;;;;18.07;15.13;;;;;;;17.97;42.16;99941.47;2064818;28;20101;-64
2021/04/09 00:38:40;;;;;;;18.27;14.23;;;;;;;17.96;42.24;99947.94;2062609;28;20022;-64
2021/04/09 00:39:40;;;;;;;18.50;15.00;;;;;;;17.98;42.10;99937.75;2062621;28;20033;-64
2021/04/09 00:40:41;;;;;;;17.17;14.00;;;;;;;17.98;42.17;99943.22;2064334;28;20053;-64
2021/04/09 00:41:43;;;;;;;18.38;14.32;;;;;;;17.98;42.30;99948.66;2070548;28;20030;-65
2021/04/09 00:42:44;;;;;;;18.45;13.88;;;;;;;17.97;42.21;99946.94;2068956;28;20097;-65
2021/04/09 00:43:45;;;;;;;16.97;14.23;;;;;;;17.97;42.12;99936.03;2069455;28;20030;-64
2021/04/09 00:44:45;;;;;;;18.85;13.23;;;;;;;17.97;42.10;99936.03;2064991;28;20022;-64
2021/04/09 00:45:46;;;;;;;20.77;14.40;;;;;;;17.95;42.44;99929.84;2064956;28;20515;-64
2021/04/09 00:46:46;;;;;;;16.97;14.23;;;;;;;17.95;42.36;99934.44;2069940;28;20025;-65
2021/04/09 00:47:47;;;;;;;17.13;13.03;;;;;;;17.95;42.21;99932.56;2069171;28;20104;-65
2021/04/09 00:48:47;;;;;;;16.85;13.95;;;;;;;17.97;42.35;99940.63;2064176;28;20026;-65
2021/04/09 00:49:48;;;;;;;18.30;13.55;;;;;;;17.98;42.14;99935.03;2069584;28;20871;-64
2021/04/09 00:50:49;;;;;;;18.87;13.63;;;;;;;17.95;42.27;99924.41;2070346;28;20026;-65
2021/04/09 00:51:49;;;;;;;18.33;13.63;;;;;;;17.96;42.28;99928.88;2066998;28;20023;-64
2021/04/09 00:52:50;;;;;;;19.90;14.90;;;;;;;17.95;42.22;99926.28;2069412;28;20104;-64
2021/04/09 00:53:51;;;;;;;15.47;13.40;;;;;;;17.94;42.16;99925.41;2062223;28;20038;-64
2021/04/09 00:54:51;;;;;;;18.17;14.13;;;;;;;17.94;42.38;99924.56;2063957;28;20022;-64
2021/04/09 00:55:52;;;;;;;20.47;14.50;;;;;;;17.94;42.52;99925.41;2066651;28;20032;-64
2021/04/09 00:56:53;;;;;;;19.20;13.70;;;;;;;17.95;42.39;99920.81;2063004;28;20022;-64
2021/04/09 00:57:56;;;;;;;17.60;14.73;;;;;;;17.94;42.24;99919.97;2064507;28;20031;-64
2021/04/09 00:59:00;;;;;;;18.92;14.80;;;;;;;17.94;42.40;99925.41;2069533;28;20041;-65
2021/04/09 01:00:04;;;;;;;15.82;13.23;;;;;;;17.92;42.32;99921.97;2069857;28;20034;-64
2021/04/09 01:01:04;;;;;;;16.63;13.80;;;;;;;17.94;42.16;99919.09;2066481;28;20732;-64
2021/04/09 01:02:05;;;;;;;18.17;14.10;;;;;;;17.93;42.39;99918.25;2069510;28;20220;-64
2021/04/09 01:03:05;;;;;;;18.67;14.77;;;;;;;17.93;42.36;99918.25;2069778;28;20029;-64
2021/04/09 01:04:06;;;;;;;16.43;13.47;;;;;;;17.93;42.30;99914.66;2066324;28;20040;-65
2021/04/09 01:05:08;;;;;;;19.33;15.07;;;;;;;17.93;42.33;99918.25;2064178;28;20034;-64
2021/04/09 01:06:09;;;;;;;15.75;13.48;;;;;;;17.93;42.38;99915.53;2069493;28;20041;-64
2021/04/09 01:07:10;;;;;;;17.93;15.33;;;;;;;17.94;42.27;99914.50;2069078;28;20539;-64
2021/04/09 01:08:11;;;;;;;18.73;13.77;;;;;;;17.92;42.14;99911.06;2062016;28;20038;-65
2021/04/09 01:09:11;;;;;;;18.53;16.03;;;;;;;17.93;42.39;99911.91;2061154;28;20074;-64
2021/04/09 01:10:15;;;;;;;17.30;14.53;;;;;;;17.92;42.38;99910.22;2067840;28;20061;-65
2021/04/09 01:11:16;;;;;;;18.42;14.65;;;;;;;17.92;42.42;99916.53;2069890;28;20088;-64
2021/04/09 01:12:17;;;;;;;15.50;12.35;;;;;;;17.93;42.32;99918.25;2065351;28;20292;-64
2021/04/09 01:13:18;;;;;;;17.30;13.87;;;;;;;17.93;42.56;99912.81;2070351;28;20034;-64
2021/04/09 01:14:18;;;;;;;18.17;14.63;;;;;;;17.93;42.55;99907.34;2069700;28;20025;-64
2021/04/09 01:15:19;;;;;;;17.53;14.13;;;;;;;17.94;42.44;99909.06;2069713;28;20057;-64
2021/04/09 01:16:46;;;;;;;15.13;12.90;;;;;;;17.93;42.39;99907.34;2065887;28;20037;-64
2021/04/09 01:18:23;;;;;;;17.63;14.00;;;;;;;17.94;42.48;99903.59;2068552;28;20057;-64
2021/04/09 01:19:48;;;;;;;16.42;12.73;;;;;;;17.92;42.60;99911.06;2063800;28;20105;-65
2021/04/09 01:21:13;;;;;;;17.42;13.98;;;;;;;17.94;42.57;99905.47;2068783;28;20076;-64
2021/04/09 01:22:15;;;;;;;19.55;13.80;;;;;;;17.95;42.46;99915.34;2069899;28;20029;-64
2021/04/09 01:23:54;;;;;;;17.60;13.77;;;;;;;17.92;42.48;99904.75;2068042;28;20026;-64
2021/04/09 01:25:17;;;;;;;16.77;13.30;;;;;;;17.92;42.55;99905.59;2064780;28;20508;-64
2021/04/09 01:26:20;;;;;;;18.67;14.07;;;;;;;17.94;42.47;99905.47;2065150;28;20022;-64
2021/04/09 01:27:42;;;;;;;16.65;13.23;;;;;;;17.93;42.38;99907.34;2069248;28;20042;-64
2021/04/09 01:28:59;;;;;;;15.40;13.65;;;;;;;17.91;42.59;99903.03;2069409;28;20026;-65
2021/04/09 01:30:24;;;;;;;15.20;12.63;;;;;;;17.90;42.51;99907.63;2068165;28;20392;-64
2021/04/09 01:31:48;;;;;;;18.67;13.85;;;;;;;17.89;42.49;99905.91;2061631;28;20030;-64
2021/04/09 01:32:51;;;;;;;17.80;14.05;;;;;;;17.91;42.49;99900.31;2064359;28;20089;-64
2021/04/09 01:33:55;;;;;;;18.88;14.13;;;;;;;17.92;42.54;99902.03;2069861;28;20026;-65
2021/04/09 01:35:06;;;;;;;16.40;13.50;;;;;;;17.91;42.43;99901.19;2069520;28;20029;-64
2021/04/09 01:36:15;;;;;;;17.15;13.15;;;;;;;17.92;42.46;99891.13;2070015;28;20026;-64
2021/04/09 01:37:23;;;;;;;15.48;13.13;;;;;;;17.94;42.33;99894.56;2070029;28;20057;-64
2021/04/09 01:38:27;;;;;;;17.73;14.18;;;;;;;17.93;42.69;99896.44;2069683;28;20029;-64
2021/04/09 01:39:33;;;;;;;17.98;14.55;;;;;;;17.93;42.45;99901.91;2069709;28;20042;-64
2021/04/09 01:40:40;;;;;;;19.52;13.55;;;;;;;17.93;42.42;99901.91;2069301;28;20030;-64
2021/04/09 01:41:41;;;;;;;16.73;13.27;;;;;;;17.94;42.38;99887.25;2065839;28;20484;-64
2021/04/09 01:42:45;;;;;;;16.40;13.20;;;;;;;17.95;42.44;99888.94;2061889;28;20033;-64
2021/04/09 01:43:46;;;;;;;16.33;13.18;;;;;;;17.94;42.42;99892.69;2068620;28;20508;-64
2021/04/09 01:44:50;;;;;;;15.15;12.43;;;;;;;17.95;42.44;99888.94;2069286;28;20025;-65
2021/04/09 01:45:52;;;;;;;17.10;13.38;;;;;;;17.95;42.33;99891.66;2069856;28;20528;-64
2021/04/09 01:46:55;;;;;;;17.48;13.45;;;;;;;17.94;42.49;99884.50;2070370;28;20656;-65
2021/04/09 01:47:56;;;;;;;19.92;15.48;;;;;;;17.95;42.49;99890.81;2071271;28;20030;-64
2021/04/09 01:48:57;;;;;;;18.52;14.10;;;;;;;17.95;42.52;99888.94;2070034;28;20037;-64
2021/04/09 01:50:01;;;;;;;16.88;13.95;;;;;;;17.95;42.45;99891.66;2071343;28;20030;-64
2021/04/09 01:51:02;;;;;;;17.83;14.25;;;;;;;17.95;42.37;99888.94;2071339;28;20131;-65
2021/04/09 01:52:07;;;;;;;16.73;13.98;;;;;;;17.94;42.50;99898.16;2070733;28;20738;-64
2021/04/09 01:53:10;;;;;;;16.80;13.60;;;;;;;17.95;42.44;99890.81;2065318;28;20081;-65
2021/04/09 01:54:13;;;;;;;18.42;14.75;;;;;;;17.96;42.44;99887.94;2069900;28;20030;-64
2021/04/09 01:55:15;;;;;;;20.00;15.02;;;;;;;17.96;42.57;99884.38;2070780;28;20038;-64
2021/04/09 01:56:17;;;;;;;17.27;14.63;;;;;;;17.96;42.35;99887.94;2070191;28;20448;-64
2021/04/09 01:57:20;;;;;;;15.40;13.30;;;;;;;17.95;42.72;99886.22;2070196;28;20060;-64
2021/04/09 01:58:22;;;;;;;17.15;13.65;;;;;;;17.95;42.41;99888.94;2067564;28;20099;-64
2021/04/09 01:59:23;;;;;;;18.23;13.82;;;;;;;17.97;42.44;99892.38;2068636;28;20029;-64
2021/04/09 02:00:25;;;;;;;23.13;13.17;;;;;;;17.96;42.49;99889.81;2070981;28;20021;-65
2021/04/09 02:01:27;;;;;;;17.05;13.90;;;;;;;17.95;42.48;99893.53;2067948;28;20256;-64
2021/04/09 02:02:28;;;;;;;17.48;14.63;;;;;;;17.96;42.45;99893.41;2071068;28;20124;-64
2021/04/09 02:03:28;;;;;;;17.27;13.82;;;;;;;17.95;42.56;99886.22;2069023;28;20757;-64
2021/04/09 02:04:31;;;;;;;16.73;13.77;;;;;;;17.95;42.61;99888.94;2067662;28;20018;-64
2021/04/09 02:05:33;;;;;;;16.98;12.73;;;;;;;17.93;42.58;99885.53;2068791;28;20053;-64
2021/04/09 02:06:35;;;;;;;16.75;13.60;;;;;;;17.93;42.48;99885.53;2071057;28;20531;-64
2021/04/09 02:07:36;;;;;;;17.25;13.85;;;;;;;17.92;42.67;99881.06;2071187;28;20026;-65
2021/04/09 02:08:37;;;;;;;17.33;13.80;;;;;;;17.94;42.61;99876.34;2063381;28;20587;-64
2021/04/09 02:09:38;;;;;;;17.87;13.17;;;;;;;17.94;42.56;99880.94;2069001;28;20464;-64
2021/04/09 02:10:39;;;;;;;17.43;14.37;;;;;;;17.93;42.57;99873.75;2070914;28;20040;-65
2021/04/09 02:12:15;;;;;;;18.10;13.60;;;;;;;17.91;42.69;99876.63;2071239;28;20882;-64
2021/04/09 02:13:15;;;;;;;17.42;13.15;;;;;;;17.91;42.73;99876.63;2067286;28;20030;-64
2021/04/09 02:14:17;;;;;;;15.40;11.93;;;;;;;17.92;42.62;99872.03;2070942;28;20135;-64
2021/04/09 02:15:20;;;;;;;16.70;13.02;;;;;;;17.93;42.70;99869.16;2071008;28;20018;-64
2021/04/09 02:16:22;;;;;;;14.52;12.13;;;;;;;17.93;42.66;99874.63;2070338;28;20022;-64
2021/04/09 02:17:23;;;;;;;16.17;12.52;;;;;;;17.94;42.50;99875.47;2069257;28;20030;-64
2021/04/09 02:18:25;;;;;;;16.77;13.05;;;;;;;17.94;42.64;99870.88;2071227;28;20030;-64
2021/04/09 02:19:26;;;;;;;15.52;12.75;;;;;;;17.94;42.80;99873.59;2067626;28;20030;-64
2021/04/09 02:20:26;;;;;;;14.63;12.07;;;;;;;17.94;42.67;99881.78;2071291;28;20076;-64
2021/04/09 02:21:27;;;;;;;16.67;13.40;;;;;;;17.95;42.68;99872.59;2070510;28;20061;-65
2021/04/09 02:22:28;;;;;;;16.10;13.30;;;;;;;17.95;42.79;99875.31;2070103;28;20029;-64
2021/04/09 02:23:29;;;;;;;15.63;12.57;;;;;;;17.96;42.45;99874.31;2070297;28;20026;-64
2021/04/09 02:24:29;;;;;;;15.98;13.27;;;;;;;17.98;42.63;99875.03;2069051;28;20055;-64
2021/04/09 02:25:30;;;;;;;17.67;12.37;;;;;;;17.98;42.55;99872.31;2070404;28;20101;-64
2021/04/09 02:26:31;;;;;;;15.17;12.43;;;;;;;17.99;42.48;99876.75;2069984;28;20030;-64
2021/04/09 02:27:31;;;;;;;16.20;13.00;;;;;;;18.00;42.45;99875.72;2071131;28;20032;-64
2021/04/09 02:28:32;;;;;;;16.17;12.93;;;;;;;18.00;42.52;99874.88;2070450;28;20034;-64
2021/04/09 02:29:33;;;;;;;15.53;12.93;;;;;;;18.00;42.48;99870.28;2066831;28;20018;-64
2021/04/09 02:30:34;;;;;;;16.65;13.48;;;;;;;18.00;42.67;99873.00;2070497;28;20068;-64
2021/04/09 02:31:35;;;;;;;15.17;12.53;;;;;;;18.00;42.46;99874.88;2066686;28;20041;-64
2021/04/09 02:32:36;;;;;;;16.27;13.45;;;;;;;17.99;42.61;99874.00;2071145;28;20081;-64
2021/04/09 02:33:37;;;;;;;19.07;14.70;;;;;;;17.98;42.63;99866.84;2070424;28;20029;-64
2021/04/09 02:34:38;;;;;;;16.55;13.25;;;;;;;17.98;42.68;99871.44;2070504;28;20460;-64
2021/04/09 02:35:38;;;;;;;16.55;13.93;;;;;;;17.96;42.78;99862.56;2070821;28;20080;-64
2021/04/09 02:36:42;;;;;;;16.90;13.20;;;;;;;17.95;42.70;99867.13;2072534;28;20032;-64
2021/04/09 02:37:47;;;;;;;16.20;12.77;;;;;;;17.95;42.56;99872.59;2070326;28;20072;-64
2021/04/09 02:38:51;;;;;;;16.20;13.57;;;;;;;17.97;42.83;99867.00;2069881;28;20109;-64
2021/04/09 02:39:55;;;;;;;16.30;13.25;;;;;;;17.95;42.68;99864.41;2070316;28;20149;-64
2021/04/09 02:41:00;;;;;;;15.13;12.38;;;;;;;17.96;42.66;99868.00;2070983;28;20524;-64
2021/04/09 02:42:06;;;;;;;14.80;12.75;;;;;;;17.96;42.50;99868.88;2069636;28;20042;-64
2021/04/09 02:43:06;;;;;;;15.27;12.35;;;;;;;17.95;42.63;99867.13;2069538;28;20041;-64
2021/04/09 02:44:08;;;;;;;15.57;12.63;;;;;;;17.95;42.79;99864.41;2070866;28;20044;-64
2021/04/09 02:45:09;;;;;;;15.70;12.77;;;;;;;17.95;42.79;99867.13;2070281;28;20497;-64
2021/04/09 02:46:15;;;;;;;16.37;13.40;;;;;;;17.94;42.66;99854.50;2071139;28;20453;-64
2021/04/09 02:47:22;;;;;;;14.93;11.75;;;;;;;17.95;42.62;99856.22;2070277;28;20061;-64
2021/04/09 02:48:28;;;;;;;16.92;13.32;;;;;;;17.96;42.71;99857.97;2069085;28;20030;-64
2021/04/09 02:49:46;;;;;;;15.73;12.07;;;;;;;17.94;42.88;99854.50;2069573;28;20132;-64
2021/04/09 02:50:49;;;;;;;15.07;12.60;;;;;;;17.94;42.85;99854.50;2065900;28;20056;-64
2021/04/09 02:51:52;;;;;;;13.90;11.43;;;;;;;17.92;42.75;99851.06;2068836;28;20036;-64
2021/04/09 02:53:01;;;;;;;14.13;12.50;;;;;;;17.92;42.89;99856.53;2077705;28;20116;-64
2021/04/09 02:54:03;;;;;;;15.38;12.45;;;;;;;17.94;42.78;99857.25;2068891;28;20041;-64
2021/04/09 02:55:14;;;;;;;;;;;;;;;17.91;42.65;99853.97;2071219;28;20044;-64
2021/04/09 02:56:15;;;;;;;15.57;11.90;;;;;;;17.90;42.88;99850.34;2070695;28;19993;-64
2021/04/09 02:57:16;;;;;;;15.57;12.77;;;;;;;17.91;43.02;99857.53;2069765;28;20562;-64
2021/04/09 02:58:19;;;;;;;15.80;12.80;;;;;;;17.93;42.87;99851.91;2069926;28;20558;-64
2021/04/09 02:59:30;;;;;;;16.30;12.98;;;;;;;17.91;42.84;99843.91;2070837;28;20052;-64
2021/04/09 03:00:31;;;;;;;15.40;12.43;;;;;;;17.92;42.83;99847.50;2069754;28;20029;-65
2021/04/09 03:01:32;;;;;;;14.73;12.10;;;;;;;17.92;42.71;99839.31;2069854;28;20029;-64
2021/04/09 03:02:34;;;;;;;15.45;12.27;;;;;;;17.92;42.78;99845.63;2069060;28;20029;-64
2021/04/09 03:04:05;;;;;;;;;;;;;;;17.86;42.92;99840.78;2069402;28;20034;-64
2021/04/09 03:05:09;;;;;;;16.67;12.13;;;;;;;17.88;43.03;99844.19;2062768;28;20371;-64
2021/04/09 03:06:09;;;;;;;15.20;12.73;;;;;;;17.88;43.09;99855.09;2066706;28;20480;-64
2021/04/09 03:07:15;;;;;;;15.50;12.50;;;;;;;17.86;43.02;99846.22;2069801;28;20030;-64
2021/04/09 03:08:17;;;;;;;15.93;12.95;;;;;;;17.87;42.92;99853.38;2070235;28;20526;-64
2021/04/09 03:09:17;;;;;;;15.02;12.48;;;;;;;17.90;42.84;99849.50;2069357;28;20025;-64
2021/04/09 03:10:18;;;;;;;15.43;12.10;;;;;;;17.91;42.93;99846.63;2070068;28;20083;-64
2021/04/09 03:11:21;;;;;;;14.00;12.43;;;;;;;17.89;42.84;99847.78;2065570;28;20038;-65
2021/04/09 03:12:22;;;;;;;15.02;12.65;;;;;;;17.91;42.81;99852.09;2070052;28;20803;-64
2021/04/09 03:13:23;;;;;;;18.13;13.87;;;;;;;17.92;42.89;99853.78;2070001;28;20467;-64
2021/04/09 03:14:24;;;;;;;15.83;13.13;;;;;;;17.92;42.91;99851.06;2066595;28;20025;-64
2021/04/09 03:15:28;;;;;;;15.38;11.85;;;;;;;17.90;42.99;99849.50;2070383;28;20030;-64
2021/04/09 03:16:38;;;;;;;16.52;13.07;;;;;;;17.89;42.84;99856.81;2070330;28;20041;-64
2021/04/09 03:18:02;;;;;;;14.05;11.77;;;;;;;17.91;42.97;99848.50;2070081;28;21031;-64
2021/04/09 03:19:03;;;;;;;14.32;12.10;;;;;;;17.89;42.84;99851.38;2070106;28;20107;-64
2021/04/09 03:20:06;;;;;;;15.73;11.83;;;;;;;17.90;42.88;99850.34;2070921;28;20359;-64
2021/04/09 03:21:06;;;;;;;14.18;11.00;;;;;;;17.92;42.91;99852.94;2068091;28;20030;-64
2021/04/09 03:22:11;;;;;;;15.03;12.33;;;;;;;17.91;42.92;99852.09;2070773;28;20030;-64
2021/04/09 03:23:11;;;;;;;13.35;11.63;;;;;;;17.92;43.00;99845.63;2069737;28;20025;-64
2021/04/09 03:24:12;;;;;;;15.80;12.70;;;;;;;17.94;42.94;99853.66;2068793;28;20767;-64
2021/04/09 03:25:12;;;;;;;14.90;11.07;;;;;;;17.94;42.93;99854.50;2070917;28;20066;-64
2021/04/09 03:26:13;;;;;;;15.17;12.23;;;;;;;17.95;42.98;99856.22;2069914;28;20033;-64
2021/04/09 03:27:16;;;;;;;15.53;12.00;;;;;;;17.96;42.77;99847.03;2070863;28;20033;-64
2021/04/09 03:28:17;;;;;;;14.73;11.75;;;;;;;17.96;42.77;99849.78;2068319;28;20033;-64
2021/04/09 03:29:17;;;;;;;13.97;12.00;;;;;;;17.96;42.89;99849.78;2069526;28;20519;-64
2021/04/09 03:30:19;;;;;;;15.50;12.67;;;;;;;17.96;42.89;99846.19;2070695;28;20052;-64
2021/04/09 03:31:20;;;;;;;14.70;12.43;;;;;;;17.98;43.04;99855.94;2068883;28;20513;-64
2021/04/09 03:32:20;;;;;;;15.67;12.83;;;;;;;18.00;42.84;99853.06;2065215;28;20037;-65
2021/04/09 03:33:22;;;;;;;15.03;12.40;;;;;;;17.99;42.80;99859.53;2069655;28;20109;-65
2021/04/09 03:34:22;;;;;;;;;;;;;;;17.91;42.89;99860.28;2070126;28;20515;-65
2021/04/09 03:35:23;;;;;;;17.13;12.43;;;;;;;17.92;42.93;99855.66;2070739;28;20295;-64
2021/04/09 03:36:24;;;;;;;14.40;11.47;;;;;;;17.94;42.92;99861.84;2070743;28;20692;-65
2021/04/09 03:37:24;;;;;;;15.30;11.73;;;;;;;17.95;43.12;99858.09;2070789;28;20817;-65
2021/04/09 03:38:25;;;;;;;14.57;12.13;;;;;;;17.95;42.95;99866.28;2069972;28;20101;-64
2021/04/09 03:39:25;;;;;;;14.43;12.10;;;;;;;17.94;43.06;99864.56;2069450;28;20621;-64
2021/04/09 03:40:25;;;;;;;14.57;12.30;;;;;;;17.94;42.90;99859.97;2069849;28;20058;-64
2021/04/09 03:41:26;;;;;;;15.33;12.30;;;;;;;17.94;42.86;99864.56;2070178;28;20022;-64
2021/04/09 03:42:26;;;;;;;15.10;11.40;;;;;;;17.94;43.08;99865.41;2070787;28;20072;-64
2021/04/09 03:43:27;;;;;;;15.70;11.37;;;;;;;17.94;42.78;99865.41;2069031;28;20034;-64
2021/04/09 03:44:43;;;;;;;13.23;11.30;;;;;;;17.94;43.02;99865.41;2069728;28;20033;-64
2021/04/09 03:45:43;;;;;;;14.88;11.50;;;;;;;17.93;43.11;99869.16;2062437;28;20108;-64
2021/04/09 03:46:43;;;;;;;13.87;11.40;;;;;;;17.93;43.09;99863.72;2067853;28;20018;-64
2021/04/09 03:47:44;;;;;;;15.17;11.63;;;;;;;17.94;43.10;99868.16;2070366;28;20018;-64
2021/04/09 03:48:44;;;;;;;13.63;11.63;;;;;;;17.94;43.05;99862.69;2064999;28;20034;-64
2021/04/09 03:49:45;;;;;;;15.30;11.50;;;;;;;17.96;42.89;99874.31;2069114;28;20018;-64
2021/04/09 03:50:45;;;;;;;15.17;11.77;;;;;;;17.96;43.10;99871.59;2070634;28;20045;-64
2021/04/09 03:51:46;;;;;;;15.53;11.37;;;;;;;17.94;43.07;99870.88;2069676;28;20114;-64
2021/04/09 03:52:46;;;;;;;15.47;11.73;;;;;;;17.96;42.94;99868.88;2070664;28;20083;-64
2021/04/09 03:54:17;;;;;;;14.48;10.85;;;;;;;17.95;43.20;99866.28;2069502;28;20021;-65
2021/04/09 03:55:18;;;;;;;13.95;11.10;;;;;;;17.94;42.96;99876.34;2069311;28;20806;-64
2021/04/09 03:56:18;;;;;;;13.90;11.27;;;;;;;17.92;42.92;99872.88;2070610;28;20100;-64
2021/04/09 03:57:19;;;;;;;14.27;10.93;;;;;;;17.95;43.19;99864.41;2069970;28;20085;-64
2021/04/09 03:58:19;;;;;;;14.10;11.37;;;;;;;17.92;42.98;99867.44;2069321;28;20030;-64
2021/04/09 03:59:20;;;;;;;13.17;10.73;;;;;;;17.92;43.00;99867.44;2070549;28;20042;-65
2021/04/09 04:00:21;;;;;;;15.30;12.23;;;;;;;17.95;43.07;99867.13;2066245;28;20093;-65
2021/04/09 04:01:26;;;;;;;15.83;12.33;;;;;;;17.92;43.08;99867.44;2069765;28;20080;-64
2021/04/09 04:02:26;;;;;;;12.93;10.88;;;;;;;17.94;43.18;99873.59;2072704;28;20021;-65
2021/04/09 04:03:26;;;;;;;14.30;11.43;;;;;;;17.94;42.99;99872.75;2062630;28;20031;-64
2021/04/09 04:04:27;;;;;;;13.63;11.10;;;;;;;17.94;43.13;99870.03;2062626;28;20531;-64
2021/04/09 04:05:27;;;;;;;13.50;10.70;;;;;;;17.93;43.05;99871.91;2065966;28;20036;-64
2021/04/09 04:06:28;;;;;;;15.03;12.77;;;;;;;17.93;43.06;99874.63;2070485;28;20025;-64
2021/04/09 04:07:28;;;;;;;14.43;11.90;;;;;;;17.92;43.06;99872.03;2069605;28;20022;-64
2021/04/09 04:08:32;;;;;;;14.53;11.67;;;;;;;17.91;43.23;99870.31;2070385;28;20029;-64
2021/04/09 04:09:32;;;;;;;13.38;11.23;;;;;;;17.92;43.11;99878.34;2068635;28;20021;-64
2021/04/09 04:10:33;;;;;;;12.80;11.37;;;;;;;17.91;43.16;99871.19;2070208;28;20097;-64
2021/04/09 04:11:33;;;;;;;13.47;11.17;;;;;;;17.93;43.14;99873.75;2063529;28;20054;-65
2021/04/09 04:12:34;;;;;;;16.10;11.90;;;;;;;17.91;43.13;99876.63;2064157;28;20600;-64
2021/04/09 04:13:34;;;;;;;14.40;10.87;;;;;;;17.91;43.07;99865.72;2070537;28;20022;-64
2021/04/09 04:14:34;;;;;;;12.90;10.97;;;;;;;17.92;43.17;99878.34;2069442;28;20053;-64
2021/04/09 04:15:35;;;;;;;13.43;11.27;;;;;;;17.93;43.04;99873.75;2070100;28;20029;-64
2021/04/09 04:16:36;;;;;;;17.77;11.80;;;;;;;17.93;43.14;99871.91;2062319;28;20346;-64
2021/04/09 04:17:36;;;;;;;13.47;11.03;;;;;;;17.91;43.02;99873.91;2065545;28;20025;-65
2021/04/09 04:18:36;;;;;;;13.80;11.82;;;;;;;17.92;43.05;99861.13;2070483;28;20022;-64
2021/04/09 04:19:37;;;;;;;14.17;11.07;;;;;;;17.91;43.13;99863.00;2069000;28;20454;-64
2021/04/09 04:20:37;;;;;;;12.88;10.55;;;;;;;17.91;43.08;99865.72;2070076;28;20488;-64
2021/04/09 04:21:38;;;;;;;12.63;10.27;;;;;;;17.92;43.15;99863.84;2068135;28;20072;-64
2021/04/09 04:22:38;;;;;;;12.73;11.00;;;;;;;17.92;43.03;99856.53;2068918;28;20025;-64
2021/04/09 04:23:39;;;;;;;14.13;11.50;;;;;;;17.93;43.09;99865.56;2070451;28;20030;-65
2021/04/09 04:24:39;;;;;;;13.43;10.47;;;;;;;17.93;43.14;99862.81;2066648;28;20137;-64
2021/04/09 04:25:40;;;;;;;12.83;10.37;;;;;;;17.93;43.25;99858.25;2070146;28;20108;-64
2021/04/09 04:26:40;;;;;;;14.60;11.30;;;;;;;17.94;43.15;99862.69;2068047;28;20025;-64
2021/04/09 04:27:40;;;;;;;14.57;10.90;;;;;;;17.95;43.01;99856.22;2069523;28;20029;-64
2021/04/09 04:28:41;;;;;;;12.67;10.63;;;;;;;17.97;43.17;99867.00;2070093;28;20026;-65
2021/04/09 04:29:41;;;;;;;13.50;10.30;;;;;;;17.94;43.02;99854.50;2068661;28;20026;-64
2021/04/09 04:30:42;;;;;;;12.27;10.87;;;;;;;17.97;43.10;99864.25;2063635;28;20030;-65
2021/04/09 04:31:42;;;;;;;13.13;10.80;;;;;;;17.95;43.13;99856.22;2068595;28;20025;-65
2021/04/09 04:32:43;;;;;;;12.60;10.63;;;;;;;17.96;43.13;99860.69;2067088;28;20040;-64
2021/04/09 04:33:43;;;;;;;14.90;11.47;;;;;;;17.96;43.13;99857.09;2070170;28;20112;-64
2021/04/09 04:34:56;;;;;;;13.43;11.27;;;;;;;17.94;43.24;99854.50;2067793;28;20029;-64
2021/04/09 04:35:57;;;;;;;13.15;10.90;;;;;;;17.96;43.25;99863.41;2070690;28;20105;-64
2021/04/09 04:36:57;;;;;;;13.13;10.43;;;;;;;17.99;43.12;99857.66;2069596;28;20026;-64
2021/04/09 04:37:59;;;;;;;13.55;11.60;;;;;;;17.98;43.01;99858.66;2061713;28;20387;-64
2021/04/09 04:39:00;;;;;;;12.82;10.68;;;;;;;17.99;43.15;99852.19;2069847;28;20132;-64
2021/04/09 04:40:00;;;;;;;15.33;11.47;;;;;;;17.98;43.12;99853.22;2066259;28;20033;-64
2021/04/09 04:41:01;;;;;;;12.03;10.43;;;;;;;17.97;43.11;99853.34;2070213;28;20053;-64
2021/04/09 04:42:01;;;;;;;12.87;10.53;;;;;;;17.96;43.18;99847.03;2069672;28;20037;-65
2021/04/09 04:43:02;;;;;;;20.97;11.73;;;;;;;17.96;43.19;99852.50;2069371;28;20074;-64
2021/04/09 04:44:03;;;;;;;13.83;11.80;;;;;;;17.97;43.22;99854.22;2069467;28;20077;-64
2021/04/09 04:45:05;;;;;;;13.27;10.20;;;;;;;17.97;43.22;99858.81;2068609;28;20752;-64
2021/04/09 04:46:27;;;;;;;11.57;10.23;;;;;;;17.97;43.19;99853.34;2070393;28;20041;-64
2021/04/09 04:47:27;;;;;;;12.70;10.82;;;;;;;17.95;43.32;99853.50;2067617;28;20906;-64
2021/04/09 04:48:28;;;;;;;12.37;10.43;;;;;;;17.93;43.24;99847.34;2069019;28;20037;-64
2021/04/09 04:49:28;;;;;;;13.80;10.73;;;;;;;17.96;43.25;99847.03;2070234;28;20033;-64